Time;durP1;ratioP1;P1;durP2;ratioP2;P2;SDS_P1;SDS_P2;PMS_P1;PMS_P2;Temp;Humidity;BMP_temperature;BMP_pressure;BME280_temperature;BME280_humidity;BME280_pressure;Samples;Min_cycle;Max_cycle;Signal;HPM_P1;HPM_P2
2022/05/26 00:00:50;;;;;;;1.30;0.70;;;;;;;17.39;56.41;99090.50;5021235;27;103437;-74
2022/05/26 00:03:22;;;;;;;1.25;0.82;;;;;;;17.33;56.30;99091.06;5004373;27;104207;-74
2022/05/26 00:05:50;;;;;;;1.10;0.90;;;;;;;17.26;56.32;99101.47;5006554;27;104145;-74
2022/05/26 00:08:18;;;;;;;1.15;0.65;;;;;;;17.10;57.02;99100.38;5020085;27;103185;-73
2022/05/26 00:10:46;;;;;;;1.40;0.80;;;;;;;17.00;56.54;99104.88;5019128;27;102661;-74
2022/05/26 00:13:14;;;;;;;1.13;0.70;;;;;;;16.94;57.49;99105.44;5007015;27;104344;-74
2022/05/26 00:15:41;;;;;;;1.83;0.80;;;;;;;17.20;56.78;99101.22;5018337;27;103167;-74
2022/05/26 00:18:10;;;;;;;1.80;0.90;;;;;;;17.19;56.67;99104.88;5021433;27;103067;-74
2022/05/26 00:20:39;;;;;;;2.50;0.80;;;;;;;17.03;56.54;99110.78;5021978;27;102701;-74
2022/05/26 00:23:09;;;;;;;1.13;0.70;;;;;;;17.25;56.28;99109.63;5024871;27;103316;-74
2022/05/26 00:25:40;;;;;;;2.20;0.67;;;;;;;17.08;56.80;99113.03;5026601;27;103540;-74
2022/05/26 00:28:08;;;;;;;1.30;0.80;;;;;;;17.16;56.81;99111.34;5024504;27;102703;-74
2022/05/26 00:30:37;;;;;;;1.80;0.98;;;;;;;17.02;57.26;99110.91;5017362;27;104429;-74
2022/05/26 00:33:08;;;;;;;1.20;0.93;;;;;;;17.20;56.72;99114.56;5024233;27;104202;-74
2022/05/26 00:35:37;;;;;;;1.50;0.70;;;;;;;17.09;56.99;99117.41;5024769;27;103192;-74
2022/05/26 00:38:07;;;;;;;1.25;0.73;;;;;;;17.08;56.75;99118.38;5022926;27;102724;-74
2022/05/26 00:40:38;;;;;;;1.92;1.00;;;;;;;16.89;57.46;99108.56;5012138;27;103035;-72
2022/05/26 00:43:07;;;;;;;2.60;0.80;;;;;;;16.97;56.92;99110.50;5019229;27;103699;-72
2022/05/26 00:45:41;;;;;;;0.80;0.50;;;;;;;17.06;56.96;99109.66;5020688;27;103200;-72
2022/05/26 00:48:14;;;;;;;1.33;0.65;;;;;;;17.10;56.96;99111.06;5019751;27;103026;-75
2022/05/26 00:50:48;;;;;;;1.10;0.70;;;;;;;16.92;57.61;99118.94;5020625;27;103779;-75
2022/05/26 00:53:29;;;;;;;1.67;0.80;;;;;;;16.93;57.59;99114.44;5019716;27;103581;-72
2022/05/26 00:56:04;;;;;;;0.90;0.70;;;;;;;17.08;57.43;99118.38;5000637;27;104254;-72
2022/05/26 00:58:38;;;;;;;1.30;0.52;;;;;;;17.14;57.19;99107.97;5003175;27;103211;-72
2022/05/26 01:01:11;;;;;;;1.42;0.90;;;;;;;17.18;56.54;99108.50;5016357;27;103919;-73
2022/05/26 01:03:43;;;;;;;1.60;0.88;;;;;;;17.27;56.67;99110.34;5003458;27;104089;-73
2022/05/26 01:06:16;;;;;;;2.03;0.80;;;;;;;17.16;57.10;99110.50;5020919;27;103378;-73
2022/05/26 01:08:54;;;;;;;1.87;0.70;;;;;;;17.04;57.56;99103.63;5002363;27;103022;-73
2022/05/26 01:11:24;;;;;;;0.57;0.50;;;;;;;17.29;57.24;99111.88;5019444;27;102722;-72
2022/05/26 01:13:56;;;;;;;1.27;0.70;;;;;;;17.32;57.10;99110.75;5016506;27;103819;-73
2022/05/26 01:16:33;;;;;;;1.63;0.70;;;;;;;17.23;57.86;99107.13;5020281;27;103057;-73
2022/05/26 01:19:25;;;;;;;1.00;0.60;;;;;;;17.28;57.56;99106.69;5024606;27;104712;-72
2022/05/26 01:22:00;;;;;;;1.27;0.65;;;;;;;17.26;57.39;99100.66;5025121;27;103086;-72
2022/05/26 01:25:03;;;;;;;1.10;0.60;;;;;;;17.30;57.59;99102.88;5019707;27;103346;-73
2022/05/26 01:27:34;;;;;;;0.93;0.60;;;;;;;17.34;57.15;99098.09;5021962;27;103412;-73
2022/05/26 01:30:19;;;;;;;1.52;0.63;;;;;;;17.22;58.07;99093.91;5023517;27;104050;-73
2022/05/26 01:33:18;;;;;;;1.73;0.70;;;;;;;17.23;57.86;99096.44;5019394;27;102847;-73
2022/05/26 01:36:00;;;;;;;2.60;0.87;;;;;;;17.20;57.61;99095.88;5023780;27;104000;-73
2022/05/26 01:38:36;;;;;;;1.17;0.70;;;;;;;17.20;58.02;99101.22;5019053;27;103195;-72
2022/05/26 01:41:17;;;;;;;2.10;0.70;;;;;;;17.10;58.35;99098.56;5022366;27;102719;-73
2022/05/26 01:43:54;;;;;;;0.77;0.52;;;;;;;17.13;57.92;99108.09;5023561;27;103041;-73
2022/05/26 01:46:29;;;;;;;0.90;0.60;;;;;;;16.96;58.03;99106.16;5020390;27;103717;-73
2022/05/26 01:49:07;;;;;;;1.45;0.70;;;;;;;16.98;57.78;99102.34;5023911;27;103289;-72
2022/05/26 01:51:41;;;;;;;1.90;1.00;;;;;;;16.97;57.93;99105.16;5021059;27;103243;-73
2022/05/26 01:54:13;;;;;;;1.90;0.90;;;;;;;16.94;57.90;99106.28;5000786;27;103919;-73
2022/05/26 01:56:48;;;;;;;1.10;0.70;;;;;;;16.91;58.52;99100.38;5020670;27;104290;-72
2022/05/26 01:59:19;;;;;;;2.40;0.57;;;;;;;16.87;58.46;99101.66;5025011;27;103412;-72
2022/05/26 02:01:52;;;;;;;1.27;0.65;;;;;;;16.82;58.45;99107.41;4997335;27;102709;-73
2022/05/26 02:04:26;;;;;;;1.05;0.68;;;;;;;16.87;58.19;99104.34;5019251;27;103907;-72
2022/05/26 02:07:02;;;;;;;1.50;0.60;;;;;;;16.89;57.99;99107.69;5008317;27;104081;-72
2022/05/26 02:09:38;;;;;;;1.27;0.70;;;;;;;16.90;58.20;99104.06;5017900;27;103390;-72
2022/05/26 02:12:12;;;;;;;1.10;0.70;;;;;;;16.88;58.23;99101.53;5001354;27;102709;-72
2022/05/26 02:14:44;;;;;;;0.70;0.60;;;;;;;16.85;58.16;99101.78;5019848;27;105073;-72
2022/05/26 02:17:16;;;;;;;0.70;0.60;;;;;;;16.92;57.56;99110.09;5020036;27;104517;-73
2022/05/26 02:19:50;;;;;;;1.00;0.60;;;;;;;16.87;57.87;99105.16;5019040;27;103432;-72
2022/05/26 02:22:25;;;;;;;0.80;0.60;;;;;;;16.83;57.93;99108.25;5020130;27;102667;-72
2022/05/26 02:24:57;;;;;;;1.07;0.67;;;;;;;16.79;58.24;99108.53;5021073;27;103894;-72
2022/05/26 02:27:27;;;;;;;1.30;0.68;;;;;;;16.79;58.34;99108.53;5020006;27;104108;-73
2022/05/26 02:29:56;;;;;;;1.70;0.60;;;;;;;16.84;57.91;99109.97;5016372;27;106815;-73
2022/05/26 02:32:29;;;;;;;1.80;0.67;;;;;;;16.75;58.36;99107.16;5002182;27;102963;-74
2022/05/26 02:35:02;;;;;;;0.80;0.50;;;;;;;16.78;58.29;99106.88;5022272;27;103735;-73
2022/05/26 02:37:33;;;;;;;0.70;0.50;;;;;;;16.70;58.79;99106.69;5020147;27;104298;-72
2022/05/26 02:40:01;;;;;;;0.95;0.70;;;;;;;16.70;58.60;99104.03;5019794;27;103499;-72
2022/05/26 02:42:29;;;;;;;1.05;0.60;;;;;;;16.65;58.92;99100.94;5021279;27;102689;-73
2022/05/26 02:44:58;;;;;;;0.80;0.50;;;;;;;16.64;59.04;99103.78;5017553;27;102847;-73
2022/05/26 02:47:40;;;;;;;1.67;0.80;;;;;;;16.52;59.56;99105.69;5019786;27;103315;-73
2022/05/26 02:50:30;;;;;;;1.00;0.50;;;;;;;16.56;59.25;99107.09;5018265;27;103176;-73
2022/05/26 02:53:06;;;;;;;0.90;0.60;;;;;;;16.56;59.05;99115.09;5026801;27;102765;-73
2022/05/26 02:55:46;;;;;;;0.80;0.80;;;;;;;16.48;60.03;99114.94;5025414;27;103838;-73
2022/05/26 02:58:21;;;;;;;1.30;0.70;;;;;;;16.10;61.75;99120.19;5016297;27;104337;-72
2022/05/26 03:00:58;;;;;;;1.13;0.52;;;;;;;16.16;61.40;99117.81;5022158;27;103227;-73
2022/05/26 03:03:34;;;;;;;0.57;0.50;;;;;;;16.28;60.19;99117.72;5017463;27;102738;-73
2022/05/26 03:06:08;;;;;;;1.20;0.60;;;;;;;16.32;60.24;99119.09;5021253;27;103055;-73
2022/05/26 03:08:39;;;;;;;1.10;0.60;;;;;;;16.34;59.79;99112.66;5017349;27;103423;-73
2022/05/26 03:11:10;;;;;;;0.70;0.70;;;;;;;16.21;60.90;99118.25;5020388;27;103274;-72
2022/05/26 03:13:39;;;;;;;0.68;0.60;;;;;;;16.24;60.75;99122.47;5007713;27;102646;-73
2022/05/26 03:16:07;;;;;;;1.35;0.70;;;;;;;16.17;61.74;99115.97;5001554;27;104058;-73
2022/05/26 03:18:35;;;;;;;1.05;0.80;;;;;;;15.99;62.28;99126.47;5020168;27;104013;-72
2022/05/26 03:21:08;;;;;;;2.00;0.80;;;;;;;15.97;62.47;99120.41;5016783;27;103265;-72
2022/05/26 03:23:37;;;;;;;0.93;0.60;;;;;;;15.93;62.37;99123.47;5017003;27;104013;-72
2022/05/26 03:26:06;;;;;;;0.68;0.52;;;;;;;15.95;62.12;99124.19;5016890;27;103396;-71
2022/05/26 03:28:35;;;;;;;0.98;0.88;;;;;;;15.85;62.50;99125.97;5020287;27;103472;-73
2022/05/26 03:31:07;;;;;;;1.10;0.70;;;;;;;15.76;63.29;99126.75;5004964;27;104135;-73
2022/05/26 03:41:49;;;;;;;1.00;0.60;;;;;;;15.85;62.65;99131.28;5002237;27;104097;-72
2022/05/26 03:44:18;;;;;;;1.60;0.90;;;;;;;15.64;63.97;99136.66;5019562;27;102701;-73
2022/05/26 03:46:47;;;;;;;1.87;0.90;;;;;;;15.61;63.90;99140.44;5006437;27;104005;-73
2022/05/26 03:49:15;;;;;;;1.88;0.70;;;;;;;15.64;64.21;99144.63;5016960;27;103500;-72
2022/05/26 03:51:45;;;;;;;0.98;0.77;;;;;;;15.61;63.75;99143.09;5020360;27;103385;-73
2022/05/26 03:54:13;;;;;;;0.85;0.60;;;;;;;15.71;63.08;99144.97;5021399;27;103042;-72
2022/05/26 03:56:40;;;;;;;1.90;0.77;;;;;;;15.64;63.52;99145.50;5021748;27;104383;-73
2022/05/26 03:59:08;;;;;;;2.10;0.73;;;;;;;15.57;63.66;99147.00;5017633;27;103311;-73
2022/05/26 04:01:36;;;;;;;1.27;0.80;;;;;;;15.52;64.04;99143.88;5019458;27;104334;-73
2022/05/26 04:04:07;;;;;;;1.20;0.70;;;;;;;15.60;63.55;99149.41;5020483;27;102783;-73
2022/05/26 04:06:36;;;;;;;1.05;0.70;;;;;;;15.63;63.85;99158.94;5022980;27;104029;-72
2022/05/26 04:09:10;;;;;;;0.95;0.60;;;;;;;15.71;63.81;99155.63;5020936;27;103798;-73
2022/05/26 04:11:37;;;;;;;1.33;0.57;;;;;;;15.76;63.65;99166.72;5018583;27;103348;-73
2022/05/26 04:14:05;;;;;;;0.80;0.60;;;;;;;15.83;63.38;99170.56;4999885;27;102832;-73
2022/05/26 04:16:33;;;;;;;1.05;0.55;;;;;;;15.86;63.40;99164.97;5016658;27;104079;-73
2022/05/26 04:19:01;;;;;;;1.02;0.50;;;;;;;15.91;63.07;99171.59;5016520;27;104246;-72
2022/05/26 04:21:29;;;;;;;0.75;0.57;;;;;;;16.04;62.88;99174.00;5024010;27;103404;-73
2022/05/26 04:23:57;;;;;;;0.85;0.60;;;;;;;16.00;63.12;99173.44;5020511;27;102665;-73
2022/05/26 04:26:27;;;;;;;1.67;0.90;;;;;;;15.99;63.42;99173.56;5026622;27;103781;-73
2022/05/26 04:29:13;;;;;;;0.60;0.52;;;;;;;16.18;63.00;99181.66;5026466;27;103946;-73
2022/05/26 04:31:41;;;;;;;1.10;0.68;;;;;;;16.26;62.67;99173.81;5023171;27;103278;-73
2022/05/26 04:34:09;;;;;;;1.55;0.70;;;;;;;16.42;62.53;99187.47;5022500;27;102902;-73
2022/05/26 04:36:37;;;;;;;1.30;0.70;;;;;;;16.48;62.44;99189.59;5022981;27;103676;-73
2022/05/26 04:39:05;;;;;;;2.15;0.90;;;;;;;16.34;63.09;99184.66;5019666;27;103303;-73
2022/05/26 04:41:34;;;;;;;1.40;0.50;;;;;;;16.62;62.54;99185.72;5018888;27;103182;-73
2022/05/26 04:44:02;;;;;;;1.10;0.70;;;;;;;16.64;62.70;99187.31;5026819;27;103520;-73
2022/05/26 04:46:30;;;;;;;0.90;0.80;;;;;;;16.70;62.49;99189.41;5008938;27;104106;-74
2022/05/26 04:48:58;;;;;;;0.80;0.50;;;;;;;16.66;62.90;99197.84;5004908;27;104294;-73
2022/05/26 04:51:26;;;;;;;1.17;0.90;;;;;;;16.54;63.47;99197.09;5006719;27;104018;-73
2022/05/26 04:53:54;;;;;;;1.70;0.60;;;;;;;16.58;62.56;99195.84;5006340;27;103155;-73
2022/05/26 04:56:23;;;;;;;2.43;0.60;;;;;;;16.55;62.09;99196.13;5020975;27;104225;-73
2022/05/26 04:58:52;;;;;;;1.17;0.80;;;;;;;16.78;61.72;99191.41;5009473;27;104177;-73
2022/05/26 05:01:21;;;;;;;2.30;0.60;;;;;;;16.91;61.48;99201.81;5010395;27;103406;-73
2022/05/26 05:03:50;;;;;;;0.50;0.50;;;;;;;17.06;61.37;99195.09;5024755;27;102861;-73
2022/05/26 05:06:18;;;;;;;1.80;0.70;;;;;;;17.15;61.23;99204.94;5020274;27;102761;-73
2022/05/26 05:08:46;;;;;;;0.60;0.52;;;;;;;17.21;60.45;99204.34;5019519;27;104046;-73
2022/05/26 05:11:14;;;;;;;2.33;0.70;;;;;;;17.01;60.27;99202.69;5027384;27;103308;-73
2022/05/26 05:13:42;;;;;;;1.88;0.80;;;;;;;16.98;60.91;99208.28;5020865;27;102825;-73
2022/05/26 05:16:16;;;;;;;1.13;0.75;;;;;;;16.96;60.17;99210.22;5008827;27;104056;-73
2022/05/26 05:18:45;;;;;;;1.80;0.70;;;;;;;17.07;60.08;99210.09;5024365;27;104300;-73
2022/05/26 05:21:17;;;;;;;1.20;0.60;;;;;;;17.21;59.16;99215.03;5022190;27;103968;-74
2022/05/26 05:23:50;;;;;;;1.30;0.60;;;;;;;17.08;59.13;99215.31;5014852;27;103221;-73
2022/05/26 05:26:20;;;;;;;1.20;0.90;;;;;;;17.05;59.49;99207.59;5022045;27;102720;-73
2022/05/26 05:28:52;;;;;;;1.45;0.70;;;;;;;17.21;58.91;99217.69;5019234;27;104313;-74
2022/05/26 05:31:26;;;;;;;1.37;0.60;;;;;;;16.91;59.52;99221.34;4997711;27;103486;-73
2022/05/26 05:33:59;;;;;;;2.75;0.70;;;;;;;17.01;59.51;99224.84;5018774;27;102751;-73
2022/05/26 05:36:30;;;;;;;1.40;0.80;;;;;;;17.16;59.24;99226.13;5023749;27;103045;-72
2022/05/26 05:38:59;;;;;;;1.40;0.70;;;;;;;17.00;59.36;99223.19;5018255;27;103302;-75
2022/05/26 05:41:28;;;;;;;1.83;0.90;;;;;;;17.07;59.28;99228.78;5019655;27;103089;-75
2022/05/26 05:43:56;;;;;;;2.13;0.80;;;;;;;17.21;59.50;99228.38;5020048;27;102878;-76
2022/05/26 05:46:25;;;;;;;2.25;0.80;;;;;;;17.43;58.56;99228.13;5021009;27;103760;-75
2022/05/26 05:48:53;;;;;;;1.90;0.70;;;;;;;17.57;57.83;99243.72;5025725;27;104308;-75
2022/05/26 05:51:21;;;;;;;1.63;0.70;;;;;;;17.45;57.84;99246.66;5014932;27;103159;-72
2022/05/26 05:53:49;;;;;;;1.17;0.60;;;;;;;17.63;57.12;99243.16;5021254;27;103374;-72
2022/05/26 05:56:17;;;;;;;2.60;0.80;;;;;;;17.68;57.14;99234.75;5022814;27;104037;-72
2022/05/26 05:58:45;;;;;;;1.17;0.52;;;;;;;17.55;57.84;99237.69;5003215;27;103922;-72
2022/05/26 06:01:12;;;;;;;1.92;0.60;;;;;;;17.74;57.08;99242.19;5017685;27;104536;-72
2022/05/26 06:03:42;;;;;;;2.63;0.60;;;;;;;17.88;56.86;99239.88;5025749;27;102672;-72
2022/05/26 06:06:13;;;;;;;0.90;0.60;;;;;;;17.84;57.12;99246.53;5008738;27;104237;-72
2022/05/26 06:08:41;;;;;;;1.67;0.68;;;;;;;18.27;56.98;99247.81;5020226;27;103285;-71
2022/05/26 06:11:09;;;;;;;1.75;0.70;;;;;;;18.22;56.14;99248.25;5017972;27;103219;-72
2022/05/26 06:13:37;;;;;;;2.08;0.65;;;;;;;18.06;56.77;99249.84;5022457;27;103484;-72
2022/05/26 06:16:06;;;;;;;1.20;0.60;;;;;;;18.19;56.98;99250.38;5020965;27;102777;-74
2022/05/26 06:18:34;;;;;;;1.00;0.60;;;;;;;18.42;56.77;99257.88;5027059;27;103886;-75
2022/05/26 06:21:04;;;;;;;1.30;0.70;;;;;;;18.52;56.31;99257.91;5022547;27;103744;-77
2022/05/26 06:23:32;;;;;;;1.20;0.60;;;;;;;18.48;55.62;99260.00;5004151;27;102756;-76
2022/05/26 06:26:01;;;;;;;1.40;0.68;;;;;;;18.36;55.87;99258.47;5026010;27;103837;-74
2022/05/26 06:31:14;;;;;;;2.33;0.88;;;;;;;18.26;55.79;99270.19;5019511;27;103181;-73
2022/05/26 06:39:14;;;;;;;1.63;0.70;;;;;;;18.78;55.26;99268.75;5020701;27;104216;-72
2022/05/26 06:44:28;;;;;;;1.02;0.70;;;;;;;18.74;54.99;99268.22;5028296;27;104231;-73
2022/05/26 06:46:55;;;;;;;0.90;0.60;;;;;;;18.60;55.25;99270.53;5024991;27;102656;-72
2022/05/26 06:49:23;;;;;;;2.50;0.80;;;;;;;19.06;54.96;99273.94;5006008;27;104224;-72
2022/05/26 06:51:52;;;;;;;1.58;0.68;;;;;;;18.84;56.17;99279.69;5010692;27;104177;-71
2022/05/26 06:54:20;;;;;;;2.25;0.70;;;;;;;19.09;54.89;99278.13;5024615;27;102686;-72
2022/05/26 06:56:48;;;;;;;1.52;0.50;;;;;;;18.83;55.40;99283.38;5022615;27;102679;-73
2022/05/26 06:59:16;;;;;;;1.35;0.60;;;;;;;19.39;54.72;99290.38;5019754;27;103941;-72
2022/05/26 07:01:44;;;;;;;4.35;1.00;;;;;;;19.60;54.01;99288.25;5032077;27;103157;-73
2022/05/26 07:04:12;;;;;;;1.10;0.67;;;;;;;19.02;55.60;99277.91;5002917;27;104056;-73
2022/05/26 07:06:40;;;;;;;1.65;0.90;;;;;;;18.93;54.34;99289.53;5026573;27;104371;-72
2022/05/26 07:09:09;;;;;;;1.63;0.70;;;;;;;19.31;54.46;99293.78;5015145;27;104250;-72
2022/05/26 07:11:37;;;;;;;1.00;0.70;;;;;;;19.73;54.52;99299.44;5014255;27;104146;-73
2022/05/26 07:14:07;;;;;;;1.73;0.70;;;;;;;19.71;52.79;99301.41;5026498;27;103134;-73
2022/05/26 07:16:35;;;;;;;2.63;0.80;;;;;;;19.79;53.25;99304.16;5023831;27;104119;-73
2022/05/26 07:19:03;;;;;;;1.97;0.60;;;;;;;19.89;52.67;99302.25;5031173;27;103552;-73
2022/05/26 07:21:34;;;;;;;2.33;0.75;;;;;;;20.40;52.19;99306.00;5007716;27;104403;-75
2022/05/26 07:24:02;;;;;;;1.30;0.80;;;;;;;20.32;52.06;99306.78;5027952;27;102579;-72
2022/05/26 07:26:32;;;;;;;1.15;0.60;;;;;;;20.34;51.25;99306.63;5021966;27;103954;-73
2022/05/26 07:29:03;;;;;;;1.90;0.70;;;;;;;20.36;51.06;99307.28;5025109;27;103778;-73
2022/05/26 07:31:31;;;;;;;1.47;0.67;;;;;;;20.42;51.91;99301.31;5021542;27;103468;-72
2022/05/26 07:33:59;;;;;;;2.42;0.60;;;;;;;20.13;51.12;99305.09;5023409;27;103266;-72
2022/05/26 07:42:04;;;;;;;2.03;0.65;;;;;;;20.54;50.83;99311.63;5001532;27;103976;-73
2022/05/26 07:44:36;;;;;;;0.98;0.50;;;;;;;21.00;48.99;99307.63;5024307;27;102660;-72
2022/05/26 07:47:04;;;;;;;2.95;0.75;;;;;;;20.92;49.10;99315.66;5029411;27;103749;-72
2022/05/26 07:49:34;;;;;;;2.13;0.70;;;;;;;20.99;49.26;99322.09;5033506;27;104370;-73
2022/05/26 07:52:04;;;;;;;1.93;0.90;;;;;;;21.04;49.43;99310.84;5034847;27;103630;-74
2022/05/26 07:54:32;;;;;;;1.90;0.75;;;;;;;20.90;49.02;99312.28;5030613;27;102655;-74
2022/05/26 07:57:02;;;;;;;1.70;0.70;;;;;;;20.99;49.61;99332.81;5024394;27;104137;-74
2022/05/26 07:59:31;;;;;;;2.92;0.60;;;;;;;21.14;48.85;99325.84;5023516;27;104301;-73
2022/05/26 08:01:59;;;;;;;1.17;0.60;;;;;;;20.84;49.23;99323.69;5029005;27;103344;-74
2022/05/26 08:04:29;;;;;;;0.70;0.50;;;;;;;20.89;49.34;99325.88;5034062;27;102618;-73
2022/05/26 08:06:57;;;;;;;1.77;0.80;;;;;;;20.55;49.88;99323.19;5030609;27;104029;-74
2022/05/26 08:09:25;;;;;;;2.73;0.73;;;;;;;20.34;50.23;99330.78;5030318;27;103252;-74
2022/05/26 08:11:53;;;;;;;0.75;0.55;;;;;;;20.65;50.31;99331.97;5025703;27;103554;-74
2022/05/26 08:14:22;;;;;;;1.48;0.60;;;;;;;20.51;50.04;99340.63;5009703;27;103103;-74
2022/05/26 08:16:50;;;;;;;1.70;0.80;;;;;;;20.18;50.52;99332.28;5028464;27;102793;-73
2022/05/26 08:19:19;;;;;;;1.48;0.60;;;;;;;20.24;50.39;99337.06;5038744;27;103384;-74
2022/05/26 08:21:46;;;;;;;2.03;0.60;;;;;;;20.65;49.75;99346.25;5026512;27;103171;-74
2022/05/26 08:24:16;;;;;;;1.30;0.70;;;;;;;20.20;50.49;99343.72;5023983;27;102676;-74
2022/05/26 08:26:44;;;;;;;1.77;0.70;;;;;;;20.38;49.74;99343.69;5030353;27;104111;-74
2022/05/26 08:29:12;;;;;;;1.50;0.70;;;;;;;20.38;50.13;99348.25;5029413;27;103455;-74
2022/05/26 08:31:43;;;;;;;2.00;0.87;;;;;;;20.31;50.82;99347.19;5023525;27;103276;-74
2022/05/26 08:34:11;;;;;;;2.17;0.90;;;;;;;20.48;51.02;99343.63;5027574;27;102766;-73
2022/05/26 08:36:39;;;;;;;0.98;0.60;;;;;;;20.95;50.36;99342.19;5027556;27;102685;-74
2022/05/26 08:39:07;;;;;;;1.20;0.60;;;;;;;20.97;49.59;99350.91;5028492;27;103247;-74
2022/05/26 08:41:39;;;;;;;1.55;0.60;;;;;;;20.84;49.69;99345.16;5029850;27;103321;-74
2022/05/26 08:44:11;;;;;;;1.02;0.50;;;;;;;21.37;48.56;99353.81;5028794;27;102639;-73
2022/05/26 08:46:47;;;;;;;2.00;0.70;;;;;;;21.41;49.39;99359.69;5030841;27;103075;-74
2022/05/26 08:49:24;;;;;;;1.98;0.75;;;;;;;21.39;49.37;99351.78;5007607;27;102730;-74
2022/05/26 08:51:56;;;;;;;2.20;0.90;;;;;;;21.69;48.68;99352.22;5025339;27;103455;-74
2022/05/26 08:54:26;;;;;;;2.58;0.80;;;;;;;21.18;48.45;99359.47;5030192;27;102930;-73
2022/05/26 08:56:58;;;;;;;1.25;0.60;;;;;;;21.73;48.31;99349.00;5004351;27;104280;-73
2022/05/26 08:59:33;;;;;;;1.90;0.80;;;;;;;21.20;49.59;99357.44;5027382;27;104147;-73
2022/05/26 09:02:03;;;;;;;2.37;0.80;;;;;;;21.71;48.36;99351.03;5024407;27;102965;-74
2022/05/26 09:04:33;;;;;;;0.90;0.70;;;;;;;22.27;47.39;99352.09;5024409;27;102748;-74
2022/05/26 09:12:58;;;;;;;1.20;0.60;;;;;;;22.43;47.52;99357.44;5018687;27;103165;-74
2022/05/26 09:15:27;;;;;;;2.72;0.80;;;;;;;20.96;49.43;99365.38;5028589;27;102756;-74
2022/05/26 09:17:57;;;;;;;1.80;0.70;;;;;;;21.88;47.75;99362.69;5025752;27;104023;-73
2022/05/26 09:20:36;;;;;;;1.90;0.80;;;;;;;22.14;47.23;99358.00;5027295;27;103303;-74
2022/05/26 09:23:12;;;;;;;1.03;0.60;;;;;;;22.50;48.21;99356.63;5025744;27;103204;-75
2022/05/26 09:25:47;;;;;;;2.13;0.97;;;;;;;21.94;47.94;99362.03;5029879;27;102824;-74
2022/05/26 09:28:27;;;;;;;2.00;0.60;;;;;;;22.14;47.54;99360.69;5023862;27;104025;-74
2022/05/26 09:30:55;;;;;;;2.33;0.80;;;;;;;21.48;48.40;99362.56;5024795;27;103288;-75
2022/05/26 09:33:31;;;;;;;3.13;0.80;;;;;;;22.26;47.83;99367.38;5026197;27;103277;-74
2022/05/26 09:36:15;;;;;;;1.13;0.70;;;;;;;22.60;48.43;99361.81;5028806;27;102706;-74
2022/05/26 09:38:43;;;;;;;2.08;0.73;;;;;;;22.69;46.68;99362.66;5006066;27;103027;-74
2022/05/26 09:41:17;;;;;;;2.17;0.90;;;;;;;22.22;48.92;99365.22;5025311;27;104499;-73
2022/05/26 09:43:50;;;;;;;1.90;0.73;;;;;;;22.07;48.59;99367.72;5024533;27;103854;-75
2022/05/26 09:46:19;;;;;;;1.52;0.60;;;;;;;22.54;48.45;99373.25;5005240;27;103070;-75
2022/05/26 09:48:53;;;;;;;1.48;0.68;;;;;;;22.26;47.85;99380.84;5007323;27;104734;-75
2022/05/26 09:51:24;;;;;;;1.30;0.70;;;;;;;22.11;48.61;99385.25;5034124;27;103366;-75
2022/05/26 09:53:55;;;;;;;2.83;0.83;;;;;;;22.14;48.99;99384.91;5022284;27;104454;-75
2022/05/26 09:56:32;;;;;;;1.60;0.60;;;;;;;22.43;48.35;99377.13;5022254;27;102765;-75
2022/05/26 09:59:00;;;;;;;1.40;0.60;;;;;;;21.99;48.15;99373.13;5021459;27;103627;-75
2022/05/26 10:01:43;;;;;;;1.15;0.60;;;;;;;22.02;49.28;99385.38;5027852;27;103337;-75
2022/05/26 10:04:25;;;;;;;1.63;0.88;;;;;;;21.12;50.25;99386.13;5026997;27;103184;-75
2022/05/26 10:07:00;;;;;;;2.43;0.67;;;;;;;21.92;49.70;99380.19;5024417;27;102914;-75
2022/05/26 10:09:34;;;;;;;1.50;0.70;;;;;;;21.98;50.11;99379.50;5028141;27;104147;-74
2022/05/26 10:12:11;;;;;;;1.50;0.80;;;;;;;22.35;48.70;99387.91;5013939;27;105714;-74
2022/05/26 10:15:03;;;;;;;2.33;1.20;;;;;;;22.29;48.46;99387.75;5031542;27;103263;-74
2022/05/26 10:17:41;;;;;;;1.43;0.83;;;;;;;22.45;47.04;99383.22;5033085;27;102749;-74
2022/05/26 10:20:23;;;;;;;1.23;0.80;;;;;;;22.76;47.11;99383.38;5026564;27;102900;-74
2022/05/26 10:23:05;;;;;;;1.70;0.88;;;;;;;22.91;47.34;99384.31;5025638;27;104022;-74
2022/05/26 10:25:40;;;;;;;1.10;0.97;;;;;;;22.77;47.60;99384.19;5028586;27;103172;-74
2022/05/26 10:28:31;;;;;;;1.50;0.93;;;;;;;22.36;48.33;99386.91;5026739;27;102703;-74
2022/05/26 10:31:07;;;;;;;0.60;0.60;;;;;;;23.12;46.81;99381.06;5034817;27;104485;-74
2022/05/26 10:33:52;;;;;;;1.20;0.70;;;;;;;22.89;46.55;99380.13;5026954;27;104562;-74
2022/05/26 10:36:30;;;;;;;1.40;0.73;;;;;;;22.95;47.19;99382.97;5029009;27;103183;-74
2022/05/26 10:39:08;;;;;;;1.67;0.90;;;;;;;22.33;49.14;99381.03;5031445;27;102608;-74
2022/05/26 10:41:41;;;;;;;0.80;0.70;;;;;;;22.13;48.60;99383.22;5035352;27;104047;-74
2022/05/26 10:44:20;;;;;;;1.70;0.60;;;;;;;22.54;47.42;99378.63;5030493;27;103255;-75
2022/05/26 10:47:03;;;;;;;1.17;0.70;;;;;;;22.94;47.19;99383.13;5028895;27;103717;-74
2022/05/26 10:49:37;;;;;;;2.10;1.00;;;;;;;22.00;49.34;99385.56;5022444;27;103019;-73
2022/05/26 10:52:13;;;;;;;1.42;0.82;;;;;;;21.43;48.98;99389.94;5030537;27;104077;-74
2022/05/26 10:54:48;;;;;;;1.60;0.83;;;;;;;22.12;48.40;99392.28;5039190;27;104169;-75
2022/05/26 10:57:22;;;;;;;2.03;0.90;;;;;;;21.87;49.27;99385.19;5014052;27;103197;-75
2022/05/26 11:00:01;;;;;;;1.60;1.00;;;;;;;22.24;48.38;99388.25;5023823;27;103057;-76
2022/05/26 11:02:35;;;;;;;2.33;0.98;;;;;;;22.54;47.37;99382.19;5016489;27;103952;-75
2022/05/26 11:05:06;;;;;;;2.83;1.10;;;;;;;21.87;49.10;99380.66;5035873;27;103166;-76
2022/05/26 11:07:42;;;;;;;2.63;1.00;;;;;;;21.69;49.64;99384.47;5030370;27;103210;-77
2022/05/26 11:10:14;;;;;;;0.95;0.82;;;;;;;22.16;48.92;99382.88;5034672;27;102725;-76
2022/05/26 11:12:48;;;;;;;1.60;0.90;;;;;;;22.70;48.85;99380.50;5027016;27;102840;-75
2022/05/26 11:18:14;;;;;;;1.10;0.70;;;;;;;22.44;48.69;99378.84;5033191;27;104154;-74
2022/05/26 11:20:46;;;;;;;1.85;0.85;;;;;;;22.68;48.04;99393.31;5030245;27;102638;-75
2022/05/26 11:23:18;;;;;;;1.88;0.95;;;;;;;23.33;46.91;99383.16;5022892;27;103672;-75
2022/05/26 11:25:57;;;;;;;2.33;1.35;;;;;;;23.00;46.35;99385.13;5027696;27;104125;-74
2022/05/26 11:28:31;;;;;;;1.50;1.20;;;;;;;22.49;48.25;99389.09;5020933;27;103334;-73
2022/05/26 11:36:50;;;;;;;1.17;1.00;;;;;;;22.17;49.50;99383.72;5028153;27;103357;-72
2022/05/26 11:39:23;;;;;;;2.20;1.00;;;;;;;22.32;48.29;99388.25;5033957;27;103202;-76
2022/05/26 11:41:55;;;;;;;1.30;1.10;;;;;;;22.64;48.58;99391.97;5025481;27;103615;-73
2022/05/26 11:44:56;;;;;;;1.47;1.03;;;;;;;22.61;49.88;99392.25;5033910;27;102870;-74
2022/05/26 11:47:34;;;;;;;2.38;1.25;;;;;;;22.36;49.02;99394.16;5022668;27;104221;-74
2022/05/26 11:50:25;;;;;;;2.50;1.00;;;;;;;22.35;49.17;99389.75;5028062;27;103215;-74
2022/05/26 11:53:13;;;;;;;1.65;1.00;;;;;;;22.06;50.08;99386.75;5035356;27;102833;-74
2022/05/26 11:55:52;;;;;;;1.97;0.93;;;;;;;22.51;49.42;99387.91;5007160;27;104551;-75
2022/05/26 11:58:31;;;;;;;1.95;1.05;;;;;;;22.53;48.29;99379.66;5023970;27;103869;-74
2022/05/26 12:01:36;;;;;;;1.92;0.82;;;;;;;22.82;48.45;99379.16;5007082;27;104106;-74
2022/05/26 12:04:26;;;;;;;2.28;1.17;;;;;;;22.41;48.99;99392.63;4975870;28;102828;-75
2022/05/26 12:06:58;;;;;;;4.20;1.58;;;;;;;21.94;50.26;99394.28;4975637;28;103541;-76
2022/05/26 12:09:32;;;;;;;2.53;1.10;;;;;;;21.78;51.13;99400.44;5010966;27;104375;-75
2022/05/26 12:12:03;;;;;;;1.87;1.10;;;;;;;21.03;52.89;99401.31;5026062;27;103311;-76
2022/05/26 12:14:35;;;;;;;1.45;0.80;;;;;;;21.93;51.20;99395.28;5026617;27;102659;-75
2022/05/26 12:17:39;;;;;;;2.58;1.20;;;;;;;22.11;50.66;99387.94;5032559;27;104054;-75
2022/05/26 12:20:34;;;;;;;2.70;1.20;;;;;;;21.81;50.96;99393.91;5027315;27;104514;-76
2022/05/26 12:23:26;;;;;;;2.70;1.25;;;;;;;21.72;51.20;99400.28;5026765;27;103141;-77
2022/05/26 12:26:30;;;;;;;2.00;1.20;;;;;;;21.66;51.09;99390.19;5028148;27;103122;-76
2022/05/26 12:29:37;;;;;;;1.55;1.10;;;;;;;22.15;49.88;99383.88;5029147;27;102703;-76